createdAt,value
2023-04-08T00:00:03.364Z,1017.8
2023-04-08T00:01:02.297Z,1017.8
2023-04-08T00:02:02.284Z,1017.8
2023-04-08T00:03:02.374Z,1017.8
2023-04-08T00:04:02.845Z,1017.8
2023-04-08T00:05:02.915Z,1017.8
2023-04-08T00:06:02.633Z,1017.8
2023-04-08T00:07:02.557Z,1017.9
2023-04-08T00:08:02.611Z,1017.8
2023-04-08T00:09:02.456Z,1017.9
2023-04-08T00:10:02.561Z,1017.9
2023-04-08T00:11:02.408Z,1017.9
2023-04-08T00:12:02.390Z,1017.9
2023-04-08T00:13:02.393Z,1017.9
2023-04-08T00:14:02.274Z,1017.9
2023-04-08T00:15:02.313Z,1017.9
2023-04-08T00:16:02.300Z,1017.9
2023-04-08T00:17:02.017Z,1017.9
2023-04-08T00:18:02.119Z,1017.9
2023-04-08T00:19:01.801Z,1018
2023-04-08T00:20:01.833Z,1017.9
2023-04-08T00:21:01.637Z,1017.9
2023-04-08T00:22:02.638Z,1018
2023-04-08T00:23:02.495Z,1018
2023-04-08T00:24:02.568Z,1017.9
2023-04-08T00:25:02.433Z,1017.9
2023-04-08T00:26:02.466Z,1018
2023-04-08T00:27:02.331Z,1018
2023-04-08T00:28:02.407Z,1018
2023-04-08T00:29:02.376Z,1018
2023-04-08T00:30:02.257Z,1018
2023-04-08T00:31:02.402Z,1018
2023-04-08T00:32:02.406Z,1018.1
2023-04-08T00:33:02.472Z,1018
2023-04-08T00:34:02.358Z,1018
2023-04-08T00:35:02.262Z,1018.1
2023-04-08T00:36:02.254Z,1018.1
2023-04-08T00:37:02.222Z,1018.1
2023-04-08T00:38:02.100Z,1018.1
2023-04-08T00:39:02.161Z,1018.1
2023-04-08T00:40:01.977Z,1018.1
2023-04-08T00:41:02.026Z,1018.1
2023-04-08T00:42:01.875Z,1018.1
2023-04-08T00:43:01.866Z,1018.1
2023-04-08T00:44:01.665Z,1018
2023-04-08T00:45:01.747Z,1018.1
2023-04-08T00:46:02.756Z,1018
2023-04-08T00:48:01.815Z,1018
2023-04-08T00:49:02.709Z,1018
2023-04-08T00:50:02.537Z,1018.1
2023-04-08T00:51:02.576Z,1018.1
2023-04-08T00:52:02.494Z,1018.1
2023-04-08T00:53:02.503Z,1018.1
2023-04-08T00:54:02.384Z,1018.1
2023-04-08T00:55:02.532Z,1018
2023-04-08T00:56:02.464Z,1018.1
2023-04-08T00:57:02.372Z,1018
2023-04-08T00:58:02.419Z,1018.1
2023-04-08T00:59:02.267Z,1018.1
2023-04-08T01:00:03.015Z,1018.1
2023-04-08T01:01:01.887Z,1018.1
2023-04-08T01:02:02.403Z,1018.1
2023-04-08T01:03:02.566Z,1018.1
2023-04-08T01:04:02.645Z,1018.1
2023-04-08T01:05:02.300Z,1018.1
2023-04-08T01:06:02.395Z,1018.1
2023-04-08T01:07:02.439Z,1018.2
2023-04-08T01:08:02.258Z,1018.2
2023-04-08T01:09:02.310Z,1018.2
2023-04-08T01:10:02.310Z,1018.2
2023-04-08T01:11:02.121Z,1018.2
2023-04-08T01:12:02.226Z,1018.2
2023-04-08T01:13:02.038Z,1018.2
2023-04-08T01:14:02.103Z,1018.2
2023-04-08T01:15:02.219Z,1018.2
2023-04-08T01:16:02.106Z,1018.2
2023-04-08T01:17:01.860Z,1018.2
2023-04-08T01:18:02.081Z,1018.2
2023-04-08T01:19:01.778Z,1018.3
2023-04-08T01:20:01.962Z,1018.2
2023-04-08T01:21:01.702Z,1018.2
2023-04-08T01:22:01.680Z,1018.3
2023-04-08T01:23:02.644Z,1018.3
2023-04-08T01:24:02.562Z,1018.3
2023-04-08T01:25:02.572Z,1018.4
2023-04-08T01:26:02.423Z,1018.3
2023-04-08T01:27:02.474Z,1018.2
2023-04-08T01:28:02.410Z,1018.3
2023-04-08T01:29:02.469Z,1018.3
2023-04-08T01:30:02.421Z,1018.3
2023-04-08T01:31:02.592Z,1018.2
2023-04-08T01:32:02.461Z,1018.3
2023-04-08T01:33:02.724Z,1018.3
2023-04-08T01:34:02.474Z,1018.3
2023-04-08T01:35:02.483Z,1018.3
2023-04-08T01:36:02.519Z,1018.3
2023-04-08T01:37:02.474Z,1018.3
2023-04-08T01:38:02.438Z,1018.3
2023-04-08T01:39:02.258Z,1018.3
2023-04-08T01:40:02.386Z,1018.4
2023-04-08T01:41:02.250Z,1018.3
2023-04-08T01:42:02.197Z,1018.4
2023-04-08T01:43:02.120Z,1018.4
2023-04-08T01:44:01.953Z,1018.4
2023-04-08T01:45:02.009Z,1018.4
2023-04-08T01:46:02.003Z,1018.4
2023-04-08T01:47:01.778Z,1018.4
2023-04-08T01:48:01.984Z,1018.4
2023-04-08T01:49:01.714Z,1018.4
2023-04-08T01:50:02.695Z,1018.4
2023-04-08T01:51:02.584Z,1018.4
2023-04-08T01:52:02.606Z,1018.4
2023-04-08T01:53:02.557Z,1018.4
2023-04-08T01:54:02.541Z,1018.5
2023-04-08T01:55:02.463Z,1018.4
2023-04-08T01:56:02.529Z,1018.4
2023-04-08T01:57:02.394Z,1018.4
2023-04-08T01:58:02.382Z,1018.4
2023-04-08T01:59:02.425Z,1018.5
2023-04-08T02:00:02.385Z,1018.4
2023-04-08T02:01:02.348Z,1018.5
2023-04-08T02:02:02.302Z,1018.4
2023-04-08T02:03:02.912Z,1018.4
2023-04-08T02:04:02.032Z,1018.5
2023-04-08T02:05:01.714Z,1018.5
2023-04-08T02:06:01.745Z,1018.5
2023-04-08T02:07:02.696Z,1018.5
2023-04-08T02:08:02.611Z,1018.5
2023-04-08T02:09:02.597Z,1018.5
2023-04-08T02:10:02.455Z,1018.5
2023-04-08T02:11:02.544Z,1018.5
2023-04-08T02:12:02.409Z,1018.6
2023-04-08T02:13:02.490Z,1018.5
2023-04-08T02:14:02.360Z,1018.6
2023-04-08T02:15:02.427Z,1018.5
2023-04-08T02:16:02.605Z,1018.5
2023-04-08T02:17:02.508Z,1018.6
2023-04-08T02:18:02.622Z,1018.6
2023-04-08T02:19:02.472Z,1018.5
2023-04-08T02:20:02.486Z,1018.5
2023-04-08T02:21:02.422Z,1018.6
2023-04-08T02:22:02.424Z,1018.6
2023-04-08T02:23:02.405Z,1018.6
2023-04-08T02:24:04.379Z,1018.6
2023-04-08T02:25:01.970Z,1018.6
2023-04-08T02:26:01.954Z,1018.6
2023-04-08T02:27:01.838Z,1018.6
2023-04-08T02:28:01.799Z,1018.6
2023-04-08T02:29:01.658Z,1018.5
2023-04-08T02:30:01.659Z,1018.6
2023-04-08T02:31:02.669Z,1018.6
2023-04-08T02:32:02.564Z,1018.6
2023-04-08T02:33:02.746Z,1018.5
2023-04-08T02:34:02.438Z,1018.6
2023-04-08T02:35:02.533Z,1018.6
2023-04-08T02:36:02.494Z,1018.6
2023-04-08T02:37:02.421Z,1018.6
2023-04-08T02:38:02.365Z,1018.6
2023-04-08T02:39:02.242Z,1018.6
2023-04-08T02:40:02.256Z,1018.6
2023-04-08T02:41:02.249Z,1018.6
2023-04-08T02:42:02.062Z,1018.6
2023-04-08T02:43:02.109Z,1018.6
2023-04-08T02:44:01.978Z,1018.7
2023-04-08T02:45:01.955Z,1018.6
2023-04-08T02:46:01.888Z,1018.6
2023-04-08T02:47:02.011Z,1018.6
2023-04-08T02:48:02.158Z,1018.7
2023-04-08T02:49:01.866Z,1018.7
2023-04-08T02:50:02.086Z,1018.7
2023-04-08T02:51:01.931Z,1018.7
2023-04-08T02:52:01.792Z,1018.7
2023-04-08T02:53:01.645Z,1018.7
2023-04-08T02:54:02.746Z,1018.8
2023-04-08T02:55:02.658Z,1018.7
2023-04-08T02:56:02.633Z,1018.7
2023-04-08T02:57:02.525Z,1018.7
2023-04-08T02:58:02.581Z,1018.7
2023-04-08T02:59:02.527Z,1018.7
2023-04-08T03:00:02.525Z,1018.8
2023-04-08T03:01:02.426Z,1018.8
2023-04-08T03:02:02.675Z,1018.8
2023-04-08T03:03:03.040Z,1018.8
2023-04-08T03:04:01.980Z,1018.8
2023-04-08T03:05:01.855Z,1018.8
2023-04-08T03:06:01.681Z,1018.8
2023-04-08T03:07:02.709Z,1018.8
2023-04-08T03:08:02.580Z,1018.8
2023-04-08T03:09:02.607Z,1018.8
2023-04-08T03:10:02.449Z,1018.8
2023-04-08T03:11:02.485Z,1018.8
2023-04-08T03:12:02.342Z,1018.8
2023-04-08T03:13:02.389Z,1018.8
2023-04-08T03:14:02.440Z,1018.8
2023-04-08T03:15:02.286Z,1018.8
2023-04-08T03:16:02.280Z,1018.9
2023-04-08T03:17:02.522Z,1018.8
2023-04-08T03:18:02.459Z,1018.7
2023-04-08T03:19:02.367Z,1018.8
2023-04-08T03:20:02.422Z,1018.8
2023-04-08T03:21:02.157Z,1018.8
2023-04-08T03:22:02.312Z,1018.8
2023-04-08T03:23:02.092Z,1018.8
2023-04-08T03:24:02.212Z,1018.8
2023-04-08T03:25:02.211Z,1018.8
2023-04-08T03:26:01.970Z,1018.8
2023-04-08T03:27:01.976Z,1018.8
2023-04-08T03:28:02.310Z,1018.8
2023-04-08T03:29:02.188Z,1018.8
2023-04-08T03:30:02.424Z,1018.9
2023-04-08T03:31:02.235Z,1018.9
2023-04-08T03:32:01.880Z,1018.8
2023-04-08T03:33:01.967Z,1018.9
2023-04-08T03:34:01.693Z,1018.8
2023-04-08T03:35:02.695Z,1018.9
2023-04-08T03:36:02.674Z,1018.9
2023-04-08T03:37:02.692Z,1018.9
2023-04-08T03:38:02.540Z,1018.9
2023-04-08T03:39:02.589Z,1018.9
2023-04-08T03:40:02.492Z,1018.9
2023-04-08T03:41:02.445Z,1019
2023-04-08T03:42:02.368Z,1018.9
2023-04-08T03:43:02.334Z,1019
2023-04-08T03:44:02.286Z,1019
2023-04-08T03:45:02.221Z,1019
2023-04-08T03:46:02.242Z,1018.9
2023-04-08T03:47:02.305Z,1019
2023-04-08T03:48:02.388Z,1019
2023-04-08T03:49:02.060Z,1019
2023-04-08T03:50:02.060Z,1019
2023-04-08T03:51:01.894Z,1019
2023-04-08T03:52:01.873Z,1019.1
2023-04-08T03:53:01.812Z,1019
2023-04-08T03:54:01.857Z,1019.1
2023-04-08T03:55:01.745Z,1019
2023-04-08T03:56:01.745Z,1019.1
2023-04-08T03:57:02.737Z,1019
2023-04-08T03:58:02.589Z,1019.1
2023-04-08T03:59:02.674Z,1019.1
2023-04-08T04:00:03.355Z,1019.1
2023-04-08T04:01:02.174Z,1019.1
2023-04-08T04:02:02.732Z,1019.1
2023-04-08T04:03:02.848Z,1019
2023-04-08T04:04:03.332Z,1019.1
2023-04-08T04:05:02.596Z,1019.1
2023-04-08T04:06:02.439Z,1019.1
2023-04-08T04:07:02.250Z,1019.1
2023-04-08T04:08:02.338Z,1019.2
2023-04-08T04:09:02.232Z,1019.2
2023-04-08T04:10:02.171Z,1019.1
2023-04-08T04:11:02.037Z,1019.2
2023-04-08T04:12:01.995Z,1019.1
2023-04-08T04:13:01.951Z,1019.1
2023-04-08T04:14:01.818Z,1019.2
2023-04-08T04:15:01.890Z,1019.3
2023-04-08T04:16:01.942Z,1019.3
2023-04-08T04:17:01.805Z,1019.3
2023-04-08T04:18:01.901Z,1019.2
2023-04-08T04:19:01.827Z,1019.3
2023-04-08T04:20:02.676Z,1019.3
2023-04-08T04:21:02.530Z,1019.3
2023-04-08T04:22:02.587Z,1019.3
2023-04-08T04:23:02.584Z,1019.3
2023-04-08T04:24:02.589Z,1019.3
2023-04-08T04:25:02.484Z,1019.4
2023-04-08T04:26:02.488Z,1019.4
2023-04-08T04:27:02.514Z,1019.3
2023-04-08T04:28:02.397Z,1019.3
2023-04-08T04:29:02.384Z,1019.4
2023-04-08T04:30:02.237Z,1019.4
2023-04-08T04:31:02.472Z,1019.4
2023-04-08T04:32:01.985Z,1019.4
2023-04-08T04:33:02.320Z,1019.4
2023-04-08T04:34:02.027Z,1019.4
2023-04-08T04:35:02.012Z,1019.4
2023-04-08T04:36:02.409Z,1019.4
2023-04-08T04:37:02.193Z,1019.5
2023-04-08T04:38:02.272Z,1019.4
2023-04-08T04:39:02.100Z,1019.4
2023-04-08T04:40:02.120Z,1019.4
2023-04-08T04:41:02.060Z,1019.5
2023-04-08T04:42:02.038Z,1019.5
2023-04-08T04:43:02.461Z,1019.5
2023-04-08T04:44:02.193Z,1019.5
2023-04-08T04:45:02.102Z,1019.5
2023-04-08T04:46:02.058Z,1019.5
2023-04-08T04:47:02.044Z,1019.5
2023-04-08T04:48:01.984Z,1019.4
2023-04-08T04:49:01.658Z,1019.5
2023-04-08T04:50:01.717Z,1019.5
2023-04-08T04:51:02.599Z,1019.5
2023-04-08T04:52:02.494Z,1019.5
2023-04-08T04:53:02.562Z,1019.5
2023-04-08T04:54:02.385Z,1019.5
2023-04-08T04:55:02.539Z,1019.5
2023-04-08T04:56:02.832Z,1019.5
2023-04-08T04:57:02.509Z,1019.6
2023-04-08T04:58:02.520Z,1019.5
2023-04-08T04:59:02.391Z,1019.6
2023-04-08T05:00:06.116Z,1019.6
2023-04-08T05:01:01.745Z,1019.6
2023-04-08T05:02:02.370Z,1019.6
2023-04-08T05:03:02.501Z,1019.6
2023-04-08T05:04:02.359Z,1019.6
2023-04-08T05:05:02.388Z,1019.6
2023-04-08T05:06:02.198Z,1019.7
2023-04-08T05:07:02.092Z,1019.6
2023-04-08T05:08:02.102Z,1019.6
2023-04-08T05:09:01.922Z,1019.7
2023-04-08T05:10:02.141Z,1019.6
2023-04-08T05:11:01.886Z,1019.7
2023-04-08T05:12:01.943Z,1019.7
2023-04-08T05:13:01.738Z,1019.7
2023-04-08T05:14:01.773Z,1019.8
2023-04-08T05:15:02.710Z,1019.7
2023-04-08T05:16:02.698Z,1019.8
2023-04-08T05:17:02.527Z,1019.8
2023-04-08T05:18:02.682Z,1019.7
2023-04-08T05:19:02.432Z,1019.8
2023-04-08T05:20:02.546Z,1019.8
2023-04-08T05:21:02.361Z,1019.8
2023-04-08T05:22:02.365Z,1019.8
2023-04-08T05:23:02.367Z,1019.8
2023-04-08T05:24:02.220Z,1019.8
2023-04-08T05:25:02.242Z,1019.8
2023-04-08T05:26:02.095Z,1019.8
2023-04-08T05:27:02.070Z,1019.8
2023-04-08T05:28:02.052Z,1019.8
2023-04-08T05:29:02.022Z,1019.9
2023-04-08T05:30:01.967Z,1019.9
2023-04-08T05:31:02.092Z,1019.9
2023-04-08T05:32:01.588Z,1019.9
2023-04-08T05:33:02.868Z,1019.9
2023-04-08T05:34:02.578Z,1019.9
2023-04-08T05:35:02.668Z,1019.9
2023-04-08T05:36:02.589Z,1019.9
2023-04-08T05:37:02.485Z,1019.9
2023-04-08T05:38:02.368Z,1019.9
2023-04-08T05:39:03.788Z,1019.9
2023-04-08T05:40:02.562Z,1019.9
2023-04-08T05:41:02.374Z,1019.9
2023-04-08T05:42:02.429Z,1019.9
2023-04-08T05:43:02.406Z,1019.9
2023-04-08T05:44:02.296Z,1020
2023-04-08T05:45:02.399Z,1020
2023-04-08T05:46:02.304Z,1020
2023-04-08T05:48:02.003Z,1020
2023-04-08T05:49:01.648Z,1020
2023-04-08T05:50:01.694Z,1020
2023-04-08T05:51:02.645Z,1020
2023-04-08T05:52:02.483Z,1020.1
2023-04-08T05:53:02.518Z,1020.1
2023-04-08T05:54:02.365Z,1020.1
2023-04-08T05:55:02.450Z,1020.1
2023-04-08T05:56:02.595Z,1020.1
2023-04-08T05:57:02.219Z,1020.1
2023-04-08T05:58:02.257Z,1020.1
2023-04-08T05:59:02.230Z,1020.1
2023-04-08T06:00:02.891Z,1020.1
2023-04-08T06:01:01.940Z,1020.2
2023-04-08T06:02:02.098Z,1020.1
2023-04-08T06:03:02.827Z,1020.1
2023-04-08T06:04:03.296Z,1020.1
2023-04-08T06:05:02.428Z,1020.1
2023-04-08T06:06:02.246Z,1020.2
2023-04-08T06:07:02.056Z,1020.1
2023-04-08T06:08:02.137Z,1020.1
2023-04-08T06:09:01.975Z,1020.1
2023-04-08T06:10:01.960Z,1020.2
2023-04-08T06:11:01.825Z,1020.2
2023-04-08T06:12:01.874Z,1020.2
2023-04-08T06:13:01.667Z,1020.2
2023-04-08T06:14:01.750Z,1020.2
2023-04-08T06:15:02.665Z,1020.2
2023-04-08T06:16:02.558Z,1020.2
2023-04-08T06:17:02.800Z,1020.2
2023-04-08T06:18:02.713Z,1020.2
2023-04-08T06:19:02.410Z,1020.3
2023-04-08T06:20:02.517Z,1020.3
2023-04-08T06:21:02.297Z,1020.2
2023-04-08T06:22:02.389Z,1020.3
2023-04-08T06:23:02.506Z,1020.2
2023-04-08T06:24:02.146Z,1020.3
2023-04-08T06:25:02.106Z,1020.3
2023-04-08T06:26:02.000Z,1020.3
2023-04-08T06:27:02.233Z,1020.3
2023-04-08T06:28:01.945Z,1020.3
2023-04-08T06:29:01.963Z,1020.3
2023-04-08T06:30:01.901Z,1020.3
2023-04-08T06:31:01.804Z,1020.4
2023-04-08T06:32:02.675Z,1020.4
2023-04-08T06:33:02.529Z,1020.4
2023-04-08T06:34:02.474Z,1020.4
2023-04-08T06:35:02.412Z,1020.3
2023-04-08T06:36:02.363Z,1020.3
2023-04-08T06:37:02.268Z,1020.3
2023-04-08T06:38:02.246Z,1020.4
2023-04-08T06:39:02.124Z,1020.4
2023-04-08T06:40:02.206Z,1020.5
2023-04-08T06:41:01.951Z,1020.5
2023-04-08T06:42:02.254Z,1020.4
2023-04-08T06:43:01.926Z,1020.5
2023-04-08T06:44:01.957Z,1020.6
2023-04-08T06:45:01.850Z,1020.5
2023-04-08T06:46:02.104Z,1020.5
2023-04-08T06:47:01.570Z,1020.6
2023-04-08T06:48:02.845Z,1020.6
2023-04-08T06:49:02.496Z,1020.6
2023-04-08T06:50:02.565Z,1020.6
2023-04-08T06:51:02.496Z,1020.7
2023-04-08T06:52:02.529Z,1020.6
2023-04-08T06:53:02.368Z,1020.6
2023-04-08T06:54:02.410Z,1020.6
2023-04-08T06:55:02.311Z,1020.6
2023-04-08T06:56:02.182Z,1020.6
2023-04-08T06:57:02.244Z,1020.6
2023-04-08T06:58:02.073Z,1020.7
2023-04-08T06:59:02.020Z,1020.6
2023-04-08T07:00:03.325Z,1020.6
2023-04-08T07:01:02.364Z,1020.6
2023-04-08T07:03:02.471Z,1020.7
2023-04-08T07:04:02.856Z,1020.6
2023-04-08T07:05:02.575Z,1020.5
2023-04-08T07:06:02.560Z,1020.7
2023-04-08T07:07:02.452Z,1020.7
2023-04-08T07:08:02.464Z,1020.7
2023-04-08T07:09:02.298Z,1020.6
2023-04-08T07:10:02.421Z,1020.7
2023-04-08T07:11:02.345Z,1020.7
2023-04-08T07:12:02.164Z,1020.8
2023-04-08T07:13:02.255Z,1020.7
2023-04-08T07:14:02.235Z,1020.8
2023-04-08T07:15:02.034Z,1020.7
2023-04-08T07:16:01.982Z,1020.7
2023-04-08T07:17:02.302Z,1020.8
2023-04-08T07:18:02.281Z,1020.7
2023-04-08T07:19:01.855Z,1020.8
2023-04-08T07:20:01.937Z,1020.8
2023-04-08T07:21:01.773Z,1020.8
2023-04-08T07:22:01.784Z,1020.7
2023-04-08T07:23:01.655Z,1020.7
2023-04-08T07:24:02.670Z,1020.8
2023-04-08T07:25:02.564Z,1020.8
2023-04-08T07:26:02.577Z,1020.8
2023-04-08T07:27:02.419Z,1020.8
2023-04-08T07:28:02.486Z,1020.8
2023-04-08T07:29:02.411Z,1020.8
2023-04-08T07:30:02.449Z,1020.9
2023-04-08T07:31:02.476Z,1020.8
2023-04-08T07:32:02.343Z,1020.8
2023-04-08T07:33:02.544Z,1020.8
2023-04-08T07:34:02.285Z,1020.8
2023-04-08T07:35:02.162Z,1020.8
2023-04-08T07:36:02.219Z,1020.9
2023-04-08T07:37:01.886Z,1020.9
2023-04-08T07:38:02.134Z,1020.9
2023-04-08T07:39:01.799Z,1020.9
2023-04-08T07:40:01.873Z,1021
2023-04-08T07:41:01.728Z,1021
2023-04-08T07:42:01.773Z,1020.9
2023-04-08T07:43:02.704Z,1021
2023-04-08T07:44:02.567Z,1021
2023-04-08T07:45:02.614Z,1021
2023-04-08T07:46:02.615Z,1021.1
2023-04-08T07:47:02.549Z,1021
2023-04-08T07:48:02.735Z,1021.1
2023-04-08T07:49:02.382Z,1021
2023-04-08T07:50:02.384Z,1021
2023-04-08T07:51:11.829Z,1021
2023-04-08T07:52:02.520Z,1021
2023-04-08T07:53:02.618Z,1021
2023-04-08T07:54:02.405Z,1021
2023-04-08T07:55:02.832Z,1020.9
2023-04-08T07:56:02.900Z,1020.9
2023-04-08T07:57:01.840Z,1021
2023-04-08T07:58:01.974Z,1021
2023-04-08T07:59:01.734Z,1021
2023-04-08T08:00:01.788Z,1021
2023-04-08T08:01:01.656Z,1021
2023-04-08T08:02:02.719Z,1021
2023-04-08T08:03:02.867Z,1021.1
2023-04-08T08:04:03.151Z,1021
2023-04-08T08:05:02.218Z,1021.1
2023-04-08T08:06:01.921Z,1021
2023-04-08T08:07:02.057Z,1021
2023-04-08T08:08:01.827Z,1021
2023-04-08T08:09:01.825Z,1021
2023-04-08T08:10:01.705Z,1021
2023-04-08T08:11:01.697Z,1021
2023-04-08T08:12:02.650Z,1021.1
2023-04-08T08:13:02.575Z,1021.1
2023-04-08T08:14:02.613Z,1021.1
2023-04-08T08:15:02.542Z,1021.1
2023-04-08T08:16:02.685Z,1021
2023-04-08T08:17:02.473Z,1021.1
2023-04-08T08:18:02.681Z,1021.1
2023-04-08T08:19:02.387Z,1021.1
2023-04-08T08:20:02.489Z,1021.1
2023-04-08T08:21:02.440Z,1021.1
2023-04-08T08:22:02.335Z,1021.1
2023-04-08T08:23:02.398Z,1021.1
2023-04-08T08:24:02.186Z,1021.1
2023-04-08T08:25:02.228Z,1021.1
2023-04-08T08:26:02.036Z,1021.1
2023-04-08T08:27:02.073Z,1021.1
2023-04-08T08:28:01.904Z,1021.2
2023-04-08T08:29:01.932Z,1021.1
2023-04-08T08:30:01.786Z,1021.1
2023-04-08T08:31:01.871Z,1021.1
2023-04-08T08:32:01.743Z,1021.1
2023-04-08T08:33:01.824Z,1021.1
2023-04-08T08:34:01.618Z,1021.1
2023-04-08T08:35:02.661Z,1021.2
2023-04-08T08:36:02.752Z,1021.1
2023-04-08T08:37:02.523Z,1021.2
2023-04-08T08:38:02.442Z,1021.1
2023-04-08T08:39:02.522Z,1021.2
2023-04-08T08:40:02.390Z,1021.2
2023-04-08T08:41:02.446Z,1021.1
2023-04-08T08:42:02.398Z,1021.1
2023-04-08T08:43:02.273Z,1021.1
2023-04-08T08:44:02.389Z,1021.2
2023-04-08T08:45:02.406Z,1021.1
2023-04-08T08:46:02.222Z,1021.2
2023-04-08T08:47:02.466Z,1021.2
2023-04-08T08:48:02.515Z,1021.2
2023-04-08T08:49:02.324Z,1021.2
2023-04-08T08:50:02.302Z,1021.2
2023-04-08T08:51:02.202Z,1021.2
2023-04-08T08:52:02.200Z,1021.2
2023-04-08T08:53:02.088Z,1021.3
2023-04-08T08:54:02.109Z,1021.2
2023-04-08T08:55:28.049Z,1021.3
2023-04-08T08:56:19.341Z,1021.3
2023-04-08T08:57:02.044Z,1021.3
2023-04-08T08:58:02.010Z,1021.3
2023-04-08T08:59:01.910Z,1021.3
2023-04-08T09:00:02.471Z,1021.4
2023-04-08T09:01:02.268Z,1021.4
2023-04-08T09:02:02.830Z,1021.4
2023-04-08T09:03:03.444Z,1021.5
2023-04-08T09:04:02.540Z,1021.5
2023-04-08T09:05:03.010Z,1021.4
2023-04-08T09:06:01.873Z,1021.4
2023-04-08T09:07:01.839Z,1021.5
2023-04-08T09:08:01.654Z,1021.5
2023-04-08T09:09:01.700Z,1021.5
2023-04-08T09:10:01.589Z,1021.5
2023-04-08T09:11:02.672Z,1021.5
2023-04-08T09:12:02.514Z,1021.5
2023-04-08T09:13:02.569Z,1021.5
2023-04-08T09:14:02.461Z,1021.6
2023-04-08T09:15:02.393Z,1021.6
2023-04-08T09:16:02.612Z,1021.6
2023-04-08T09:18:02.630Z,1021.6
2023-04-08T09:19:02.434Z,1021.6
2023-04-08T09:20:02.315Z,1021.7
2023-04-08T09:21:02.558Z,1021.6
2023-04-08T09:22:02.329Z,1021.6
2023-04-08T09:23:02.173Z,1021.6
2023-04-08T09:24:02.218Z,1021.6
2023-04-08T09:25:02.030Z,1021.6
2023-04-08T09:26:02.056Z,1021.6
2023-04-08T09:27:01.980Z,1021.6
2023-04-08T09:28:01.884Z,1021.6
2023-04-08T09:29:26.126Z,1021.6
2023-04-08T09:30:02.216Z,1021.7
2023-04-08T09:31:02.221Z,1021.7
2023-04-08T09:33:02.027Z,1021.6
2023-04-08T09:34:01.728Z,1021.6
2023-04-08T09:35:01.702Z,1021.6
2023-04-08T09:36:01.738Z,1021.7
2023-04-08T09:37:02.644Z,1021.6
2023-04-08T09:38:02.495Z,1021.7
2023-04-08T09:39:02.549Z,1021.7
2023-04-08T09:40:02.397Z,1021.6
2023-04-08T09:41:02.481Z,1021.6
2023-04-08T09:42:02.516Z,1021.6
2023-04-08T09:43:02.297Z,1021.7
2023-04-08T09:44:02.357Z,1021.6
2023-04-08T09:45:02.341Z,1021.7
2023-04-08T09:46:02.302Z,1021.6
2023-04-08T09:47:02.207Z,1021.6
2023-04-08T09:48:02.444Z,1021.6
2023-04-08T09:49:02.228Z,1021.7
2023-04-08T09:50:02.086Z,1021.6
2023-04-08T09:51:02.060Z,1021.6
2023-04-08T09:52:01.992Z,1021.7
2023-04-08T09:53:02.088Z,1021.7
2023-04-08T09:54:01.916Z,1021.6
2023-04-08T09:55:01.949Z,1021.6
2023-04-08T09:56:01.736Z,1021.6
2023-04-08T09:57:01.728Z,1021.6
2023-04-08T09:58:02.636Z,1021.6
2023-04-08T09:59:02.507Z,1021.6
2023-04-08T10:00:02.613Z,1021.7
2023-04-08T10:01:02.549Z,1021.6
2023-04-08T10:02:02.803Z,1021.5
2023-04-08T10:03:03.136Z,1021.6
2023-04-08T10:04:02.165Z,1021.6
2023-04-08T10:05:02.447Z,1021.6
2023-04-08T10:06:02.270Z,1021.6
2023-04-08T10:07:02.176Z,1021.7
2023-04-08T10:08:02.193Z,1021.7
2023-04-08T10:09:02.081Z,1021.6
2023-04-08T10:10:02.162Z,1021.7
2023-04-08T10:11:01.948Z,1021.6
2023-04-08T10:12:02.035Z,1021.7
2023-04-08T10:13:01.786Z,1021.6
2023-04-08T10:14:01.851Z,1021.5
2023-04-08T10:15:01.724Z,1021.6
2023-04-08T10:16:01.723Z,1021.7
2023-04-08T10:17:02.607Z,1021.7
2023-04-08T10:18:02.556Z,1021.7
2023-04-08T10:19:02.433Z,1021.7
2023-04-08T10:20:02.397Z,1021.7
2023-04-08T10:21:02.102Z,1021.7
2023-04-08T10:22:02.148Z,1021.7
2023-04-08T10:23:02.027Z,1021.7
2023-04-08T10:24:02.067Z,1021.7
2023-04-08T10:25:01.899Z,1021.7
2023-04-08T10:26:01.932Z,1021.7
2023-04-08T10:27:01.736Z,1021.7
2023-04-08T10:28:01.763Z,1021.7
2023-04-08T10:29:01.641Z,1021.7
2023-04-08T10:30:02.680Z,1021.7
2023-04-08T10:31:02.582Z,1021.7
2023-04-08T10:32:02.481Z,1021.7
2023-04-08T10:33:02.584Z,1021.7
2023-04-08T10:34:02.337Z,1021.7
2023-04-08T10:35:02.204Z,1021.6
2023-04-08T10:36:02.347Z,1021.6
2023-04-08T10:37:02.202Z,1021.7
2023-04-08T10:38:02.077Z,1021.6
2023-04-08T10:39:02.077Z,1021.7
2023-04-08T10:40:02.077Z,1021.7
2023-04-08T10:41:01.816Z,1021.7
2023-04-08T10:42:01.842Z,1021.7
2023-04-08T10:43:01.694Z,1021.8
2023-04-08T10:44:01.765Z,1021.7
2023-04-08T10:45:02.625Z,1021.7
2023-04-08T10:46:02.586Z,1021.8
2023-04-08T10:47:02.549Z,1021.7
2023-04-08T10:48:02.650Z,1021.7
2023-04-08T10:49:02.486Z,1021.7
2023-04-08T10:50:02.556Z,1021.8
2023-04-08T10:51:02.403Z,1021.7
2023-04-08T10:52:02.444Z,1021.7
2023-04-08T10:53:02.487Z,1021.7
2023-04-08T10:54:02.229Z,1021.7
2023-04-08T10:55:02.232Z,1021.7
2023-04-08T10:56:02.199Z,1021.7
2023-04-08T10:57:02.111Z,1021.7
2023-04-08T10:58:02.208Z,1021.7
2023-04-08T10:59:02.035Z,1021.7
2023-04-08T11:00:03.483Z,1021.8
2023-04-08T11:01:02.389Z,1021.8
2023-04-08T11:02:03.132Z,1021.8
2023-04-08T11:03:02.431Z,1021.7
2023-04-08T11:04:02.554Z,1021.7
2023-04-08T11:05:02.298Z,1021.7
2023-04-08T11:06:02.321Z,1021.7
2023-04-08T11:07:02.273Z,1021.7
2023-04-08T11:08:02.262Z,1021.8
2023-04-08T11:09:02.220Z,1021.7
2023-04-08T11:10:02.047Z,1021.7
2023-04-08T11:11:02.078Z,1021.7
2023-04-08T11:12:01.983Z,1021.8
2023-04-08T11:13:02.052Z,1021.8
2023-04-08T11:14:01.888Z,1021.9
2023-04-08T11:15:01.869Z,1021.8
2023-04-08T11:16:01.809Z,1021.8
2023-04-08T11:17:02.178Z,1021.8
2023-04-08T11:18:02.350Z,1021.8
2023-04-08T11:19:02.089Z,1021.8
2023-04-08T11:20:02.170Z,1021.8
2023-04-08T11:21:01.989Z,1021.8
2023-04-08T11:22:02.032Z,1021.8
2023-04-08T11:23:01.849Z,1021.8
2023-04-08T11:24:01.872Z,1021.8
2023-04-08T11:25:01.707Z,1021.8
2023-04-08T11:26:01.711Z,1021.8
2023-04-08T11:27:02.632Z,1021.8
2023-04-08T11:28:02.449Z,1021.8
2023-04-08T11:29:02.544Z,1021.9
2023-04-08T11:30:02.394Z,1021.8
2023-04-08T11:31:02.576Z,1021.7
2023-04-08T11:33:01.895Z,1021.7
2023-04-08T11:34:02.676Z,1021.8
2023-04-08T11:35:02.526Z,1021.7
2023-04-08T11:36:02.788Z,1021.7
2023-04-08T11:37:02.538Z,1021.8
2023-04-08T11:38:02.430Z,1021.8
2023-04-08T11:39:02.341Z,1021.8
2023-04-08T11:40:02.372Z,1021.8
2023-04-08T11:41:02.307Z,1021.8
2023-04-08T11:42:02.187Z,1021.8
2023-04-08T11:43:02.249Z,1021.9
2023-04-08T11:44:02.104Z,1021.8
2023-04-08T11:45:02.138Z,1021.9
2023-04-08T11:46:02.023Z,1021.9
2023-04-08T11:47:01.973Z,1021.9
2023-04-08T11:48:05.313Z,1021.9
2023-04-08T11:49:01.967Z,1021.9
2023-04-08T11:50:02.102Z,1021.9
2023-04-08T11:51:01.833Z,1021.8
2023-04-08T11:52:01.862Z,1021.8
2023-04-08T11:53:01.746Z,1021.9
2023-04-08T11:54:01.724Z,1021.8
2023-04-08T11:55:02.631Z,1021.8
2023-04-08T11:56:02.503Z,1021.8
2023-04-08T11:57:02.469Z,1021.8
2023-04-08T11:58:02.315Z,1021.7
2023-04-08T11:59:02.368Z,1021.8
2023-04-08T12:00:02.772Z,1021.8
2023-04-08T12:01:01.707Z,1021.8
2023-04-08T12:02:02.321Z,1021.8
2023-04-08T12:03:02.544Z,1021.8
2023-04-08T12:04:02.887Z,1021.8
2023-04-08T12:05:01.954Z,1021.8
2023-04-08T12:06:01.658Z,1021.8
2023-04-08T12:07:01.640Z,1021.8
2023-04-08T12:08:02.665Z,1021.8
2023-04-08T12:09:02.498Z,1021.8
2023-04-08T12:10:02.615Z,1021.8
2023-04-08T12:11:20.424Z,1021.8
2023-04-08T12:12:02.148Z,1021.8
2023-04-08T12:13:02.144Z,1021.8
2023-04-08T12:14:01.935Z,1021.7
2023-04-08T12:15:01.962Z,1021.8
2023-04-08T12:16:02.052Z,1021.8
2023-04-08T12:17:01.579Z,1021.8
2023-04-08T12:18:02.951Z,1021.8
2023-04-08T12:19:01.685Z,1021.8
2023-04-08T12:20:02.681Z,1021.8
2023-04-08T12:21:02.610Z,1021.8
2023-04-08T12:22:02.522Z,1021.8
2023-04-08T12:23:02.470Z,1021.8
2023-04-08T12:24:02.524Z,1021.8
2023-04-08T12:25:02.333Z,1021.8
2023-04-08T12:26:02.322Z,1021.8
2023-04-08T12:27:02.304Z,1021.8
2023-04-08T12:28:02.138Z,1021.7
2023-04-08T12:29:02.331Z,1021.8
2023-04-08T12:30:02.208Z,1021.7
2023-04-08T12:31:02.044Z,1021.8
2023-04-08T12:32:01.944Z,1021.7
2023-04-08T12:33:01.971Z,1021.8
2023-04-08T12:34:01.617Z,1021.8
2023-04-08T12:35:02.638Z,1021.8
2023-04-08T12:36:02.647Z,1021.7
2023-04-08T12:37:02.573Z,1021.7
2023-04-08T12:38:02.508Z,1021.8